createdAt,value
2022-11-05T00:00:15.687Z,99.90
2022-11-05T00:03:00.536Z,99.90
2022-11-05T00:05:46.633Z,99.90
2022-11-05T00:08:32.702Z,99.90
2022-11-05T00:11:01.368Z,99.90
2022-11-05T00:13:48.499Z,99.90
2022-11-05T00:16:36.544Z,99.90
2022-11-05T00:19:07.673Z,99.90
2022-11-05T00:21:54.761Z,99.90
2022-11-05T00:24:40.989Z,99.90
2022-11-05T00:27:10.606Z,99.90
2022-11-05T00:29:40.318Z,99.90
2022-11-05T00:32:08.666Z,99.90
2022-11-05T00:34:37.122Z,99.90
2022-11-05T00:37:05.857Z,99.90
2022-11-05T00:39:34.304Z,99.90
2022-11-05T00:42:19.843Z,99.90
2022-11-05T00:45:04.550Z,99.90
2022-11-05T00:47:52.111Z,99.90
2022-11-05T00:50:22.545Z,99.90
2022-11-05T00:52:59.301Z,99.90
2022-11-05T00:55:30.838Z,99.90
2022-11-05T00:57:59.531Z,99.90
2022-11-05T01:00:30.981Z,99.90
2022-11-05T01:03:00.818Z,99.90
2022-11-05T01:05:39.327Z,99.90
2022-11-05T01:08:08.977Z,99.90
2022-11-05T01:10:41.714Z,99.90
2022-11-05T01:13:13.213Z,99.90
2022-11-05T01:15:43.750Z,99.90
2022-11-05T01:18:12.398Z,99.90
2022-11-05T01:20:41.431Z,99.90
2022-11-05T01:23:13.592Z,99.90
2022-11-05T01:25:42.629Z,99.90
2022-11-05T01:28:11.386Z,99.90
2022-11-05T01:30:40.435Z,99.90
2022-11-05T01:33:11.689Z,99.90
2022-11-05T01:35:40.941Z,99.90
2022-11-05T01:38:09.206Z,99.90
2022-11-05T01:40:37.475Z,99.90
2022-11-05T01:43:13.657Z,99.90
2022-11-05T01:45:42.995Z,99.90
2022-11-05T01:48:16.970Z,99.90
2022-11-05T01:50:49.583Z,99.90
2022-11-05T01:53:26.023Z,99.90
2022-11-05T01:55:58.732Z,99.90
2022-11-05T01:58:32.671Z,99.90
2022-11-05T02:01:01.313Z,99.90
2022-11-05T02:03:31.719Z,99.90
2022-11-05T02:06:01.993Z,99.90
2022-11-05T02:08:49.805Z,99.90
2022-11-05T02:11:20.887Z,99.90
2022-11-05T02:13:50.375Z,99.90
2022-11-05T02:16:29.888Z,99.90
2022-11-05T02:19:07.760Z,99.90
2022-11-05T02:22:13.467Z,99.90
2022-11-05T02:25:10.688Z,99.90
2022-11-05T02:28:16.149Z,99.90
2022-11-05T02:30:50.426Z,99.90
2022-11-05T02:33:36.798Z,99.90
2022-11-05T02:36:34.549Z,99.90
2022-11-05T02:39:14.508Z,99.90
2022-11-05T02:41:51.169Z,99.90
2022-11-05T02:44:28.675Z,99.90
2022-11-05T02:47:06.813Z,99.90
2022-11-05T02:49:42.383Z,99.90
2022-11-05T02:52:17.420Z,99.90
2022-11-05T02:54:53.719Z,99.90
2022-11-05T02:57:23.659Z,99.90
2022-11-05T03:00:02.159Z,99.90
2022-11-05T03:02:32.322Z,99.90
2022-11-05T03:05:01.213Z,99.90
2022-11-05T03:07:41.868Z,99.90
2022-11-05T03:10:34.784Z,99.90
2022-11-05T03:13:18.279Z,99.90
2022-11-05T03:15:55.865Z,99.90
2022-11-05T03:18:31.612Z,99.90
2022-11-05T03:21:06.387Z,99.90
2022-11-05T03:23:40.467Z,99.90
2022-11-05T03:26:17.697Z,99.90
2022-11-05T03:28:50.035Z,99.90
2022-11-05T03:31:19.854Z,99.90
2022-11-05T03:33:50.893Z,99.90
2022-11-05T03:36:25.815Z,99.90
2022-11-05T03:38:57.285Z,99.90
2022-11-05T03:41:26.667Z,99.90
2022-11-05T03:43:59.654Z,99.90
2022-11-05T03:46:30.985Z,99.90
2022-11-05T03:49:05.002Z,99.90
2022-11-05T03:51:39.831Z,99.90
2022-11-05T03:54:08.619Z,99.90
2022-11-05T03:56:41.329Z,99.90
2022-11-05T03:59:11.878Z,99.90
2022-11-05T04:01:40.552Z,99.90
2022-11-05T04:04:12.228Z,99.90
2022-11-05T04:06:58.096Z,99.90
2022-11-05T04:09:43.652Z,99.90
2022-11-05T04:12:29.660Z,99.90
2022-11-05T04:14:57.925Z,99.90
2022-11-05T04:17:25.194Z,99.90
2022-11-05T04:20:12.476Z,99.90
2022-11-05T04:22:57.895Z,99.90
2022-11-05T04:25:26.132Z,99.90
2022-11-05T04:27:54.516Z,99.90
2022-11-05T04:30:22.789Z,99.90
2022-11-05T04:33:06.867Z,99.90
2022-11-05T04:35:38.602Z,99.90
2022-11-05T04:38:09.158Z,99.90
2022-11-05T04:40:38.109Z,99.90
2022-11-05T04:43:13.634Z,99.90
2022-11-05T04:45:43.668Z,99.90
2022-11-05T04:48:12.483Z,99.90
2022-11-05T04:50:42.173Z,99.90
2022-11-05T04:53:10.645Z,99.90
2022-11-05T04:55:39.175Z,99.90
2022-11-05T04:58:07.475Z,99.90
2022-11-05T05:00:35.766Z,99.90
2022-11-05T05:03:04.195Z,99.90
2022-11-05T05:05:32.503Z,99.90
2022-11-05T05:08:04.604Z,99.90
2022-11-05T05:10:33.193Z,99.90
2022-11-05T05:13:01.452Z,99.90
2022-11-05T05:15:29.905Z,99.90
2022-11-05T05:17:58.153Z,99.90
2022-11-05T05:20:44.140Z,99.90
2022-11-05T05:23:13.894Z,99.90
2022-11-05T05:25:42.292Z,99.90
2022-11-05T05:28:10.758Z,99.90
2022-11-05T05:30:39.059Z,99.90
2022-11-05T05:33:07.617Z,99.90
2022-11-05T05:35:36.112Z,99.90
2022-11-05T05:38:04.523Z,99.90
2022-11-05T05:40:34.192Z,99.90
2022-11-05T05:43:02.455Z,99.90
2022-11-05T05:45:30.665Z,99.90
2022-11-05T05:47:58.885Z,99.90
2022-11-05T05:50:27.082Z,99.90
2022-11-05T05:52:55.316Z,99.90
2022-11-05T05:55:23.512Z,99.90
2022-11-05T05:57:53.116Z,99.90
2022-11-05T06:00:22.683Z,99.90
2022-11-05T06:02:52.386Z,99.90
2022-11-05T06:05:20.675Z,99.90
2022-11-05T06:07:55.597Z,99.90
2022-11-05T06:10:24.140Z,99.90
2022-11-05T06:12:53.831Z,99.90
2022-11-05T06:15:22.317Z,99.90
2022-11-05T06:17:50.580Z,99.90
2022-11-05T06:20:20.100Z,99.90
2022-11-05T06:22:55.757Z,99.90
2022-11-05T06:25:24.578Z,99.90
2022-11-05T06:27:54.622Z,99.90
2022-11-05T06:30:24.052Z,99.90
2022-11-05T06:32:52.652Z,99.90
2022-11-05T06:35:20.952Z,99.90
2022-11-05T06:37:49.176Z,99.90
2022-11-05T06:40:17.593Z,99.90
2022-11-05T06:42:45.898Z,99.90
2022-11-05T06:45:15.644Z,99.90
2022-11-05T06:47:43.912Z,99.90
2022-11-05T06:50:12.139Z,99.90
2022-11-05T06:52:41.394Z,99.90
2022-11-05T06:55:10.471Z,99.90
2022-11-05T06:57:42.659Z,99.90
2022-11-05T07:00:11.761Z,99.90
2022-11-05T07:02:42.407Z,99.90
2022-11-05T07:05:11.915Z,99.90
2022-11-05T07:07:40.912Z,99.90
2022-11-05T07:10:12.542Z,99.90
2022-11-05T07:12:40.899Z,99.90
2022-11-05T07:15:10.521Z,99.90
2022-11-05T07:17:39.064Z,99.90
2022-11-05T07:20:10.829Z,99.90
2022-11-05T07:22:39.386Z,99.90
2022-11-05T07:25:08.617Z,99.90
2022-11-05T07:27:40.695Z,99.90
2022-11-05T07:30:10.813Z,99.90
2022-11-05T07:32:40.000Z,99.90
2022-11-05T07:35:11.102Z,99.90
2022-11-05T07:37:46.268Z,99.90
2022-11-05T07:40:15.599Z,99.90
2022-11-05T07:42:45.857Z,99.90
2022-11-05T07:45:14.343Z,99.90
2022-11-05T07:47:47.937Z,99.90
2022-11-05T07:50:18.265Z,99.90
2022-11-05T07:52:47.992Z,99.90
2022-11-05T07:55:20.611Z,99.90
2022-11-05T07:57:50.688Z,99.90
2022-11-05T08:00:21.551Z,99.90
2022-11-05T08:03:05.566Z,99.90
2022-11-05T08:05:38.851Z,99.90
2022-11-05T08:08:09.160Z,99.90
2022-11-05T08:10:38.561Z,99.90
2022-11-05T08:13:08.119Z,99.90
2022-11-05T08:15:36.865Z,99.90
2022-11-05T08:18:06.801Z,99.90
2022-11-05T08:20:38.570Z,99.90
2022-11-05T08:23:07.511Z,99.90
2022-11-05T08:25:36.318Z,99.90
2022-11-05T08:28:07.485Z,99.90
2022-11-05T08:30:36.621Z,99.90
2022-11-05T08:33:07.085Z,99.90
2022-11-05T08:35:38.400Z,99.90
2022-11-05T08:38:08.996Z,99.90
2022-11-05T08:40:38.304Z,99.90
2022-11-05T08:43:09.867Z,99.90
2022-11-05T08:45:39.532Z,99.90
2022-11-05T08:48:10.502Z,99.90
2022-11-05T08:50:40.780Z,99.90
2022-11-05T08:53:10.889Z,99.90
2022-11-05T08:55:39.754Z,99.90
2022-11-05T08:58:12.515Z,99.90
2022-11-05T09:00:42.024Z,99.90
2022-11-05T09:03:11.616Z,99.90
2022-11-05T09:05:43.034Z,99.90
2022-11-05T09:08:12.976Z,99.90
2022-11-05T09:10:42.646Z,99.90
2022-11-05T09:13:17.838Z,99.90
2022-11-05T09:15:48.044Z,99.90
2022-11-05T09:18:17.353Z,99.90
2022-11-05T09:20:47.667Z,99.90
2022-11-05T09:23:16.151Z,99.90
2022-11-05T09:25:46.726Z,99.90
2022-11-05T09:28:17.520Z,99.90
2022-11-05T09:30:48.051Z,99.90
2022-11-05T09:33:18.893Z,99.90
2022-11-05T09:35:49.168Z,99.90
2022-11-05T09:38:17.822Z,99.90
2022-11-05T09:40:53.519Z,99.90
2022-11-05T09:43:31.221Z,99.90
2022-11-05T09:46:04.327Z,99.90
2022-11-05T09:48:34.929Z,99.90
2022-11-05T09:51:06.399Z,99.90
2022-11-05T09:53:40.326Z,99.90
2022-11-05T09:56:23.112Z,99.90
2022-11-05T09:58:55.708Z,99.90
2022-11-05T10:01:28.279Z,99.90
2022-11-05T10:04:00.434Z,99.90
2022-11-05T10:06:30.344Z,99.90
2022-11-05T10:09:06.669Z,99.90
2022-11-05T10:11:41.287Z,99.90
2022-11-05T10:14:17.874Z,99.90
2022-11-05T10:16:52.570Z,99.90
2022-11-05T10:19:25.130Z,99.90
2022-11-05T10:22:06.941Z,99.90
2022-11-05T10:24:46.421Z,99.90
2022-11-05T10:27:18.765Z,99.90
2022-11-05T10:29:48.011Z,99.90
2022-11-05T10:32:26.642Z,99.90
2022-11-05T10:34:58.426Z,99.90
2022-11-05T10:37:29.856Z,99.90
2022-11-05T10:39:58.537Z,99.90
2022-11-05T10:42:41.812Z,99.90
2022-11-05T10:45:22.245Z,99.90
2022-11-05T10:48:01.075Z,99.90
2022-11-05T10:50:30.720Z,99.90
2022-11-05T10:53:03.026Z,99.90
2022-11-05T10:55:33.798Z,99.90
2022-11-05T10:58:10.683Z,99.90
2022-11-05T11:00:39.439Z,99.90
2022-11-05T11:03:36.026Z,99.90
2022-11-05T11:06:07.770Z,99.90
2022-11-05T11:08:37.862Z,99.90
2022-11-05T11:11:11.509Z,99.90
2022-11-05T11:13:59.635Z,99.90
2022-11-05T11:16:30.835Z,99.90
2022-11-05T11:19:01.101Z,99.90
2022-11-05T11:21:31.043Z,99.90
2022-11-05T11:24:03.356Z,99.90
2022-11-05T11:26:34.505Z,99.90
2022-11-05T11:29:08.581Z,99.90
2022-11-05T11:31:40.680Z,99.90
2022-11-05T11:34:18.068Z,99.90
2022-11-05T11:36:48.864Z,99.90
2022-11-05T11:39:20.717Z,99.90
2022-11-05T11:41:53.393Z,99.90
2022-11-05T11:44:26.929Z,99.90
2022-11-05T11:46:58.365Z,99.90
2022-11-05T11:49:34.076Z,99.90
2022-11-05T11:52:08.174Z,99.90
2022-11-05T11:54:38.000Z,99.90
2022-11-05T11:57:22.584Z,99.90
2022-11-05T12:02:56.001Z,99.90
2022-11-05T12:05:37.439Z,99.90
2022-11-05T12:08:18.151Z,99.90
2022-11-05T12:10:56.873Z,99.90
2022-11-05T12:13:56.953Z,99.90
2022-11-05T12:16:52.518Z,99.90
2022-11-05T12:19:41.802Z,99.90
2022-11-05T12:22:19.376Z,99.90
2022-11-05T12:25:06.820Z,99.90
2022-11-05T12:27:59.001Z,99.90
2022-11-05T12:30:36.230Z,99.90
2022-11-05T12:33:28.407Z,99.90
2022-11-05T12:36:10.141Z,99.90
2022-11-05T12:39:00.039Z,99.90
2022-11-05T12:41:33.515Z,99.90
2022-11-05T12:44:16.977Z,99.90
2022-11-05T12:46:59.769Z,99.90
2022-11-05T12:49:47.978Z,99.90
2022-11-05T12:52:52.884Z,99.90
2022-11-05T12:55:24.467Z,99.90
2022-11-05T12:57:56.239Z,99.90
2022-11-05T13:00:28.217Z,99.90
2022-11-05T13:03:07.191Z,99.90
2022-11-05T13:05:38.563Z,99.90
2022-11-05T13:08:11.247Z,99.90
2022-11-05T13:10:45.543Z,99.90
2022-11-05T13:13:19.145Z,99.90
2022-11-05T13:15:52.867Z,99.90
2022-11-05T13:18:27.594Z,99.90
2022-11-05T13:20:57.682Z,99.90
2022-11-05T13:23:33.486Z,99.20
2022-11-05T13:26:08.363Z,93.50
2022-11-05T13:28:45.386Z,94.50
2022-11-05T13:31:19.907Z,96.10
2022-11-05T13:33:50.744Z,95.90
2022-11-05T13:36:41.688Z,96.00
2022-11-05T13:39:17.782Z,93.40
2022-11-05T13:42:00.439Z,91.70
2022-11-05T13:44:58.639Z,89.00
2022-11-05T13:47:54.288Z,84.60
2022-11-05T13:50:47.680Z,82.80
2022-11-05T13:53:39.669Z,84.90
2022-11-05T13:56:23.171Z,87.80
2022-11-05T13:59:04.037Z,90.50
2022-11-05T14:01:50.072Z,91.30
2022-11-05T14:04:33.562Z,92.40
2022-11-05T14:07:11.224Z,93.90
2022-11-05T14:09:41.375Z,94.80
2022-11-05T14:12:20.958Z,95.90
2022-11-05T14:14:58.844Z,97.30
2022-11-05T14:17:33.052Z,97.50
2022-11-05T14:20:25.259Z,98.10
2022-11-05T14:22:54.400Z,98.80
2022-11-05T14:25:55.768Z,99.40
2022-11-05T14:28:47.471Z,99.90
2022-11-05T14:31:47.219Z,99.90
2022-11-05T14:34:23.905Z,99.90
2022-11-05T14:37:25.624Z,99.90
2022-11-05T14:39:55.494Z,99.90
2022-11-05T14:42:27.709Z,99.90
2022-11-05T14:45:23.637Z,99.90
2022-11-05T14:47:55.379Z,99.90
2022-11-05T14:50:31.697Z,99.90
2022-11-05T14:53:13.532Z,99.90
2022-11-05T14:55:44.596Z,99.90
2022-11-05T14:58:36.828Z,99.90
2022-11-05T15:01:07.728Z,99.90
2022-11-05T15:04:01.873Z,99.90
2022-11-05T15:06:33.394Z,99.90
2022-11-05T15:09:19.466Z,99.90
2022-11-05T15:12:00.240Z,99.90
2022-11-05T15:14:33.718Z,99.90
2022-11-05T15:17:13.299Z,99.90
2022-11-05T15:19:43.642Z,99.90
2022-11-05T15:22:25.475Z,99.90
2022-11-05T15:24:55.799Z,99.90
2022-11-05T15:27:40.844Z,99.90
2022-11-05T15:30:17.263Z,99.90
2022-11-05T15:32:45.645Z,99.90
2022-11-05T15:35:26.943Z,99.90
2022-11-05T15:38:02.199Z,99.90
2022-11-05T15:40:33.717Z,99.90
2022-11-05T15:43:17.423Z,99.90
2022-11-05T15:45:59.411Z,99.90
2022-11-05T15:48:28.577Z,99.90
2022-11-05T15:50:57.341Z,99.90
2022-11-05T15:53:56.085Z,99.90
2022-11-05T15:56:28.196Z,99.90
2022-11-05T15:59:00.719Z,99.90
2022-11-05T16:01:32.827Z,99.90
2022-11-05T16:04:09.731Z,99.90
2022-11-05T16:06:40.913Z,99.90
2022-11-05T16:09:20.321Z,99.90
2022-11-05T16:11:51.118Z,99.90
2022-11-05T16:14:21.446Z,99.90
2022-11-05T16:16:49.910Z,99.90
2022-11-05T16:19:40.853Z,99.90
2022-11-05T16:22:10.220Z,99.90
2022-11-05T16:24:38.992Z,99.90
2022-11-05T16:27:19.395Z,99.90
2022-11-05T16:29:53.948Z,99.90
2022-11-05T16:32:30.236Z,99.90
2022-11-05T16:35:02.309Z,99.90
2022-11-05T16:37:46.324Z,99.90
2022-11-05T16:40:18.514Z,99.90
2022-11-05T16:42:51.275Z,99.90
2022-11-05T16:45:22.898Z,99.90
2022-11-05T16:47:51.716Z,99.90
2022-11-05T16:50:27.628Z,99.90
2022-11-05T16:52:56.094Z,99.90
2022-11-05T16:55:24.641Z,99.90
2022-11-05T16:57:56.645Z,99.90
2022-11-05T17:00:26.344Z,99.90
2022-11-05T17:02:55.183Z,99.90
2022-11-05T17:05:26.264Z,99.90
2022-11-05T17:07:55.350Z,99.90
2022-11-05T17:10:25.158Z,99.90
2022-11-05T17:12:55.274Z,99.90
2022-11-05T17:15:25.953Z,99.90
2022-11-05T17:17:55.374Z,99.90
2022-11-05T17:20:42.744Z,99.90
2022-11-05T17:23:12.617Z,99.90
2022-11-05T17:25:42.220Z,99.90
2022-11-05T17:28:13.908Z,99.90
2022-11-05T17:30:46.643Z,99.90
2022-11-05T17:33:20.107Z,99.90
2022-11-05T17:35:50.129Z,99.90
2022-11-05T17:38:21.961Z,99.90
2022-11-05T17:40:50.618Z,99.90
2022-11-05T17:43:20.726Z,99.90
2022-11-05T17:45:52.088Z,99.90
2022-11-05T17:48:22.551Z,99.90
2022-11-05T17:50:51.853Z,99.90
2022-11-05T17:53:21.193Z,99.90
2022-11-05T17:55:50.559Z,99.90
2022-11-05T17:58:21.429Z,99.90
2022-11-05T18:00:50.029Z,99.90
2022-11-05T18:03:18.686Z,99.90
2022-11-05T18:05:47.264Z,99.90
2022-11-05T18:08:15.660Z,99.90
2022-11-05T18:10:44.118Z,99.90
2022-11-05T18:13:13.004Z,99.90
2022-11-05T18:15:43.629Z,99.90
2022-11-05T18:18:12.228Z,99.90
2022-11-05T18:20:44.492Z,99.90
2022-11-05T18:23:14.246Z,99.90
2022-11-05T18:25:44.209Z,99.90
2022-11-05T18:28:12.828Z,99.90
2022-11-05T18:30:43.119Z,99.90
2022-11-05T18:33:11.913Z,99.90
2022-11-05T18:35:46.301Z,99.90
2022-11-05T18:38:15.535Z,99.90
2022-11-05T18:40:44.195Z,99.90
2022-11-05T18:43:13.051Z,99.90
2022-11-05T18:45:43.035Z,99.90
2022-11-05T18:48:12.211Z,99.90
2022-11-05T18:50:41.003Z,99.90
2022-11-05T18:53:09.726Z,99.90
2022-11-05T18:55:40.227Z,99.90
2022-11-05T18:58:09.890Z,99.90
2022-11-05T19:00:41.422Z,99.90
2022-11-05T19:03:11.471Z,99.90
2022-11-05T19:05:40.994Z,99.90
2022-11-05T19:08:09.599Z,99.90
2022-11-05T19:10:41.272Z,99.90
2022-11-05T19:13:09.669Z,99.90
2022-11-05T19:15:38.262Z,99.90
2022-11-05T19:18:06.944Z,99.90
2022-11-05T19:20:37.909Z,99.90
2022-11-05T19:23:07.017Z,99.90
2022-11-05T19:25:37.917Z,99.90
2022-11-05T19:28:07.018Z,99.90
2022-11-05T19:30:35.780Z,99.90
2022-11-05T19:33:04.352Z,99.90
2022-11-05T19:35:35.708Z,99.90
2022-11-05T19:38:10.372Z,99.90
2022-11-05T19:40:39.067Z,99.90
2022-11-05T19:43:07.468Z,99.90
2022-11-05T19:45:44.534Z,99.90
2022-11-05T19:48:19.059Z,99.90
2022-11-05T19:50:48.808Z,99.90
2022-11-05T19:53:18.739Z,99.90
2022-11-05T19:55:47.072Z,99.90
2022-11-05T19:58:15.999Z,99.90
2022-11-05T20:00:44.773Z,99.90
2022-11-05T20:03:14.305Z,99.90
2022-11-05T20:05:43.394Z,99.90
2022-11-05T20:08:12.085Z,99.90
2022-11-05T20:10:42.130Z,99.90
2022-11-05T20:13:14.274Z,99.90
2022-11-05T20:15:46.460Z,99.90
2022-11-05T20:18:16.471Z,99.90
2022-11-05T20:20:45.134Z,99.90
2022-11-05T20:23:14.407Z,99.90
2022-11-05T20:25:44.515Z,99.90
2022-11-05T20:28:13.236Z,99.90
2022-11-05T20:30:42.095Z,99.90
2022-11-05T20:33:10.574Z,99.90
2022-11-05T20:35:40.930Z,99.90
2022-11-05T20:38:09.823Z,99.90
2022-11-05T20:40:42.235Z,99.90
2022-11-05T20:43:12.046Z,99.90
2022-11-05T20:45:40.403Z,99.90
2022-11-05T20:48:08.952Z,99.90
2022-11-05T20:50:41.625Z,99.90
2022-11-05T20:53:10.358Z,99.90
2022-11-05T20:55:44.152Z,99.90
2022-11-05T20:58:15.259Z,99.90
2022-11-05T21:00:50.053Z,99.90
2022-11-05T21:03:19.036Z,99.90
2022-11-05T21:05:48.215Z,99.90
2022-11-05T21:08:16.820Z,99.90
2022-11-05T21:10:51.006Z,99.90
2022-11-05T21:13:21.347Z,99.90
2022-11-05T21:15:52.156Z,99.90
2022-11-05T21:18:23.903Z,99.90
2022-11-05T21:20:52.996Z,99.90
2022-11-05T21:23:22.010Z,99.90
2022-11-05T21:25:50.457Z,99.90
2022-11-05T21:28:21.351Z,99.90
2022-11-05T21:30:50.041Z,99.90
2022-11-05T21:33:19.802Z,99.90
2022-11-05T21:35:50.247Z,99.90
2022-11-05T21:38:19.362Z,99.90
2022-11-05T21:40:48.351Z,99.90
2022-11-05T21:43:16.986Z,99.90
2022-11-05T21:45:46.988Z,99.90
2022-11-05T21:48:16.092Z,99.90
2022-11-05T21:51:07.188Z,99.90
2022-11-05T21:53:53.132Z,99.90
2022-11-05T21:56:42.570Z,99.90
2022-11-05T21:59:30.725Z,99.90
2022-11-05T22:02:02.526Z,99.90
2022-11-05T22:04:32.123Z,99.90
2022-11-05T22:07:01.200Z,99.90
2022-11-05T22:09:32.770Z,99.90
2022-11-05T22:12:01.818Z,99.90
2022-11-05T22:14:31.283Z,99.90
2022-11-05T22:17:01.297Z,99.90
2022-11-05T22:19:30.690Z,99.90
2022-11-05T22:21:58.943Z,99.90
2022-11-05T22:24:28.041Z,99.90
2022-11-05T22:26:56.305Z,99.90
2022-11-05T22:29:24.746Z,99.90
2022-11-05T22:31:53.033Z,99.90
2022-11-05T22:34:22.685Z,99.90
2022-11-05T22:36:50.981Z,99.90
2022-11-05T22:39:19.366Z,99.90
2022-11-05T22:41:47.843Z,99.90
2022-11-05T22:44:17.442Z,99.90
2022-11-05T22:46:45.727Z,99.90
2022-11-05T22:49:14.278Z,99.90
2022-11-05T22:51:44.327Z,99.90
2022-11-05T22:54:13.019Z,99.90
2022-11-05T22:56:44.072Z,99.90
2022-11-05T22:59:14.710Z,99.90
2022-11-05T23:01:44.071Z,99.90
2022-11-05T23:04:13.321Z,99.90
2022-11-05T23:07:00.307Z,99.90
2022-11-05T23:09:48.992Z,99.90
2022-11-05T23:12:24.318Z,99.90
2022-11-05T23:14:53.192Z,99.90
2022-11-05T23:17:39.678Z,99.90
2022-11-05T23:20:29.432Z,99.90
2022-11-05T23:23:17.237Z,99.90
2022-11-05T23:25:46.052Z,99.90
2022-11-05T23:28:15.406Z,99.90
2022-11-05T23:30:59.391Z,99.90
2022-11-05T23:33:28.222Z,99.90
2022-11-05T23:36:14.181Z,99.90
2022-11-05T23:38:43.848Z,99.90
2022-11-05T23:41:29.335Z,99.90
2022-11-05T23:44:14.947Z,99.90
2022-11-05T23:47:00.463Z,99.90
2022-11-05T23:49:28.794Z,99.90
2022-11-05T23:51:57.047Z,99.90
2022-11-05T23:54:27.180Z,99.90
2022-11-05T23:56:55.410Z,99.90
2022-11-05T23:59:23.878Z,99.90
